CheckWX is a tool to help pilots better visualize weather data.  It is not intended as a substitute for an official pre-flight weather briefing.

23:48:49 UTC

KBIS TAF
Bismarck Municipal Airport
Bismarck, North Dakota, USA
KBIS 241942Z 2420/2518 21004KT P6SM VCTS FEW019 BKN035CB FM242300 28011KT P6SM VCSH SCT020 BKN050 FM250500 28006KT P6SM SCT025 BKN080

May-24@
20:00 UTC

May-24 @ 20:00 UTC

May-24@
23:00 UTC

May-24 @ 23:00 UTC

KBIS 241942Z 2420/2518 21004KT P6SM VCTS FEW019 BKN035CB

Expired

Wind
  • 210° at 4 KTS
Conditions
Area Thunderstorm
Cloud Levels
  • Few at 1,900' AGL
  • Broken at 3,500' AGL

May-24@
23:00 UTC

May-24 @ 23:00 UTC

May-25@
05:00 UTC

May-25 @ 05:00 UTC

FM242300 28011KT P6SM VCSH SCT020 BKN050

From

From Standard forecast or significant change

Wind
  • 280° at 11 KTS
Cloud Levels
  • Scattered at 2,000' AGL
  • Broken at 5,000' AGL

May-25@
05:00 UTC

May-25 @ 05:00 UTC

May-25@
18:00 UTC

May-25 @ 18:00 UTC

FM250500 28006KT P6SM SCT025 BKN080

From

From Standard forecast or significant change

Wind
  • 280° at 6 KTS
Cloud Levels
  • Scattered at 2,500' AGL
  • Broken at 8,000' AGL